ADDS METAR Data INFO
IDs: Format: Raw Decoded Include TAF

Data at: 0741 UTC 23 Jul 2018

KILN 230654Z AUTO 01007KT 10SM OVC013 18/18 A2983 RMK AO2 SLP093 T01830178
KILN 230622Z AUTO 03008KT 10SM OVC013 18/18 A2982 RMK AO2 T01830178
KILN 230554Z AUTO 02007KT 10SM OVC015 18/18 A2982 RMK AO2 SLP092 T01780178 10233 20178 58007
KILN 230454Z AUTO 01009KT 10SM BKN016 BKN028 18/18 A2984 RMK AO2 SLP097 T01830178 402560183
KILN 230424Z AUTO 02009KT 10SM SCT010 SCT018 OVC028 18/18 A2984 RMK AO2 T01830178
KILN 230354Z AUTO 02009KT 10SM OVC010 19/18 A2985 RMK AO2 SLP100 T01890178
KILN 230318Z AUTO 01011KT 10SM BKN011 OVC024 19/18 A2985 RMK AO2 T01890183
KILN 230254Z AUTO 02009KT 10SM BKN025 BKN030 OVC039 19/18 A2984 RMK AO2 SLP100 T01940183 51022
KILN 230247Z AUTO 01010KT 10SM BKN027 OVC039 19/18 A2984 RMK AO2 T01940183
KILN 230154Z AUTO 02009KT 10SM FEW035 BKN085 19/18 A2983 RMK AO2 SLP095 T01940183
KILN 230054Z AUTO 01012KT 10SM SCT041 BKN080 22/19 A2980 RMK AO2 SLP085 T02170189
KILN 222354Z AUTO 01012KT 10SM OVC080 23/20 A2978 RMK AO2 SLP076 T02330200 10256 20228 53010
KILN 222254Z AUTO 05009KT 10SM FEW085 25/19 A2975 RMK AO2 SLP067 T02500194
KILN 222154Z AUTO 02007KT 10SM FEW055 OVC080 24/20 A2974 RMK AO2 SLP064 T02440200
KILN 222054Z AUTO 03010KT 10SM FEW026 SCT037 BKN060 24/20 A2975 RMK AO2 SLP065 T02440200 55000
KILN 221954Z AUTO 05010KT 10SM FEW023 BKN040 OVC060 24/20 A2974 RMK AO2 SLP063 T02390200
KILN 221854Z AUTO 04009KT 10SM FEW019 BKN031 OVC047 23/20 A2975 RMK AO2 SLP066 T02280200
KILN 221822Z AUTO 02010KT 10SM SCT015 SCT024 OVC045 23/21 A2974 RMK AO2 T02280206
KILN 221813Z AUTO 03012KT 10SM SCT015 BKN024 OVC045 23/20 A2974 RMK AO2 T02280200
KILN 221754Z AUTO 05010KT 10SM FEW020 BKN042 OVC048 23/21 A2975 RMK AO2 SLP066 T02280206 10228 20189 50005
KILN 221729Z AUTO 07007KT 10SM FEW021 SCT028 OVC038 22/21 A2975 RMK AO2 T02220206
KILN 221654Z AUTO 05008KT 10SM BKN018 OVC025 22/20 A2975 RMK AO2 SLP068 T02220200
KILN 221554Z AUTO 06007KT 10SM SCT014 BKN019 OVC025 22/20 A2974 RMK AO2 SLP065 T02220200
KILN 221543Z AUTO 06007KT 10SM SCT013 OVC019 22/21 A2974 RMK AO2 T02170206
KILN 221506Z AUTO 06005KT 10SM FEW007 OVC011 21/21 A2973 RMK AO2 T02060206
KILN 221454Z AUTO 04008KT 9SM OVC009 21/20 A2973 RMK AO2 CIG 006V012 SLP062 T02060200 51010
KILN 221354Z AUTO 05008KT 7SM OVC007 19/19 A2972 RMK AO2 CIG 005V010 SLP059 T01940194
KILN 221303Z AUTO 04009KT 6SM BR OVC005 19/19 A2972 RMK AO2 T01940194
KILN 221254Z AUTO 06007KT 5SM BR OVC004 19/19 A2971 RMK AO2 CIG 003V008 SLP056 T01940194
KILN 221214Z AUTO 04008KT 3SM BR OVC003 19/19 A2971 RMK AO2 T01890189
KILN 221202Z AUTO 03010KT 2SM BR OVC004 19/19 A2970 RMK AO2 CIG 002V007 T01890189
KILN 221154Z AUTO 03009KT 3SM BR BKN004 OVC008 19/19 A2970 RMK AO2 CIG 002V005 SLP052 70037 T01890189 10194 20183 53006
KILN 221054Z AUTO 06003KT 3SM BR BKN005 OVC030 19/19 A2969 RMK AO2 SLP046 T01890189
KILN 221049Z AUTO 05004KT 3SM BR BKN005 OVC029 19/19 A2969 RMK AO2 CIG 003V008
KILN 220954Z AUTO 07004KT 4SM BR OVC004 19/19 A2968 RMK AO2 CIG 001V007 SLP043 T01890189
KILN 220947Z AUTO 08003KT 2 1/2SM BR OVC002 19/19 A2968 RMK AO2 T01890189
KILN 220929Z AUTO 08005KT 1 3/4SM BR OVC002 19/19 A2968 RMK AO2 T01890189
KILN 220916Z AUTO 07004KT 1/2SM FG VV002 19/19 A2968 RMK AO2 T01890189
KILN 220854Z AUTO 06006KT 1/4SM FG VV002 19/19 A2968 RMK AO2 SLP041 T01890189 56007
KILN 220754Z AUTO 05005KT 1/4SM FG VV002 19/19 A2968 RMK AO2 SLP045 T01890189
KILN 220654Z AUTO 12003KT 1/4SM FG VV002 19/19 A2969 RMK AO2 SLP047 T01890189
KILN 220613Z AUTO 11004KT 3/4SM BR VV002 19/19 A2970 RMK AO2 T01890189
KILN 220604Z AUTO 10003KT 1SM BR VV002 18/18 A2970 RMK AO2 T01830183
KILN 220553Z AUTO 13003KT 3/4SM BR VV002 18/18 A2970 RMK AO2 SLP049 60000 T01830183 10194 20183 56013
KILN 220552Z AUTO 13003KT 3/4SM BR VV002 18/18 A2970 RMK AO2
KILN 220540Z AUTO 10003KT 1 1/4SM BR OVC001 18/18 A2970 RMK AO2 T01830183
KILN 220528Z AUTO 00000KT 2 1/2SM BR OVC001 18/18 A2971 RMK AO2 T01830183
KILN 220516Z AUTO 00000KT 2 1/2SM BR OVC002 18/18 A2971 RMK AO2 T01830183
KILN 220454Z AUTO 12004KT 5SM BR OVC003 18/18 A2971 RMK AO2 SLP055 T01830183 402560178
KILN 220443Z AUTO 10004KT 4SM BR BKN003 OVC019 18/18 A2971 RMK AO2 T01830183
KILN 220431Z AUTO 10004KT 2 1/2SM BR BKN002 OVC016 18/18 A2972 RMK AO2 CIG 001V006 T01830183
KILN 220424Z AUTO 09003KT 4SM BR SCT002 BKN015 OVC021 18/18 A2972 RMK AO2 T01830183
KILN 220407Z AUTO 12003KT 3SM BR OVC002 19/19 A2972 RMK AO2 T01890189
KILN 220403Z AUTO 12004KT 1 3/4SM BR OVC002 19/19 A2972 RMK AO2 T01890189
KILN 220354Z AUTO 13004KT 3/4SM BR VV002 19/19 A2972 RMK AO2 SLP059 T01890189
KILN 220322Z AUTO 18003KT 1 3/4SM BR OVC002 19/19 A2974 RMK AO2 T01890189
KILN 220254Z AUTO 22003KT 8SM OVC003 19/19 A2974 RMK AO2 RAE05 SLP064 P0000 60000 T01890189 55000
KILN 220154Z AUTO 15004KT 10SM -RA OVC003 19/19 A2974 RMK AO2 RAB50 SLP065 P0000 T01940194
KILN 220103Z AUTO 15004KT 10SM BKN003 OVC110 19/19 A2973 RMK AO2 T01940194
KILN 220054Z AUTO 16003KT 10SM SCT003 OVC110 19/19 A2973 RMK AO2 RAE11 SLP065 P0000 T01940194
KILN 220035Z AUTO 16004KT 10SM SCT004 OVC100 19/19 A2973 RMK AO2 RAE11 P0000 T01940194
KILN 220027Z AUTO 18004KT 10SM BKN004 OVC110 19/19 A2974 RMK AO2 RAE11 P0000 T01940194
KILN 220013Z AUTO 17004KT 10SM FEW004 OVC110 19/19 A2974 RMK AO2 RAE11 P0000 T01940194
KILN 212354Z AUTO 16004KT 6SM -RA BR SCT035 BKN090 OVC110 20/20 A2974 RMK AO2 SLP065 P0033 60037 T02000200 10256 20200 52001
KILN 212351Z AUTO 15003KT 5SM -RA BR FEW024 BKN037 OVC120 21/21 A2974 RMK AO2 P0033
KILN 212344Z AUTO 00000KT 2SM -RA BR FEW015 BKN037 OVC090 21/21 A2974 RMK AO2 P0032 T02060206
KILN 212335Z AUTO 27004KT 1/2SM +RA FG SCT016 BKN034 OVC070 21/20 A2974 RMK AO2 P0026 T02060200
KILN 212325Z AUTO 23008KT 3/4SM +RA BR BKN015 BKN030 OVC070 21/20 A2974 RMK AO2 P0007 T02060200
KILN 212320Z AUTO 24008KT 2 1/2SM RA BR SCT013 BKN020 OVC110 21/20 A2974 RMK AO2 P0001 T02110200
KILN 212254Z AUTO 10003KT 10SM -RA FEW050 SCT075 BKN090 23/20 A2974 RMK AO2 LTG DSNT S RAB49 SLP063 P0000 T02280200
KILN 212154Z AUTO 24005KT 10SM CLR 23/19 A2974 RMK AO2 SLP063 T02280194
KILN 212054Z AUTO 26008KT 10SM CLR 24/20 A2974 RMK AO2 LTG DSNT E SLP064 60004 T02390200 58004
KILN 211954Z AUTO 26009KT 10SM SCT014 BKN036 OVC110 23/21 A2975 RMK AO2 WSHFT 1841 LTG DSNT SE RAB30E50 SLP067 P0004 T02280211
KILN 211951Z AUTO 25010G15KT 10SM FEW016 BKN036 OVC110 22/21 A2975 RMK AO2 WSHFT 1841 LTG DSNT E AND SE RAB30E50 P0004